createdAt,value
2022-08-26T00:00:52.015Z,5.05
2022-08-26T00:03:21.444Z,5.93
2022-08-26T00:05:51.182Z,4.90
2022-08-26T00:08:22.674Z,5.40
2022-08-26T00:10:52.830Z,4.88
2022-08-26T00:13:21.433Z,5.20
2022-08-26T00:15:51.498Z,5.35
2022-08-26T00:18:22.618Z,5.28
2022-08-26T00:20:51.948Z,5.88
2022-08-26T00:23:20.684Z,5.97
2022-08-26T00:25:54.952Z,5.20
2022-08-26T00:28:25.716Z,5.53
2022-08-26T00:30:55.386Z,5.60
2022-08-26T00:33:24.794Z,5.40
2022-08-26T00:35:53.679Z,5.82
2022-08-26T00:38:23.118Z,5.05
2022-08-26T00:40:56.598Z,5.22
2022-08-26T00:43:26.370Z,5.38
2022-08-26T00:45:59.319Z,5.07
2022-08-26T00:48:31.942Z,5.53
2022-08-26T00:51:05.399Z,5.80
2022-08-26T00:53:41.471Z,5.47
2022-08-26T00:56:17.520Z,5.38
2022-08-26T00:58:48.228Z,5.28
2022-08-26T01:03:51.740Z,6.05
2022-08-26T01:06:21.120Z,5.72
2022-08-26T01:08:50.057Z,6.10
2022-08-26T01:11:20.252Z,5.90
2022-08-26T01:13:50.077Z,5.60
2022-08-26T01:16:18.839Z,5.73
2022-08-26T01:18:49.928Z,5.68
2022-08-26T01:21:27.469Z,6.07
2022-08-26T01:24:00.994Z,6.38
2022-08-26T01:26:34.056Z,6.30
2022-08-26T01:29:06.630Z,6.28
2022-08-26T01:31:41.937Z,6.75
2022-08-26T01:34:17.743Z,6.93
2022-08-26T01:36:51.418Z,6.38
2022-08-26T01:39:21.948Z,6.68
2022-08-26T01:41:53.530Z,6.88
2022-08-26T01:44:26.955Z,6.90
2022-08-26T01:46:58.553Z,6.18
2022-08-26T01:49:29.094Z,6.80
2022-08-26T01:52:02.287Z,6.65
2022-08-26T01:54:33.907Z,6.28
2022-08-26T01:59:32.281Z,7.63
2022-08-26T02:02:00.962Z,6.43
2022-08-26T02:04:33.674Z,6.68
2022-08-26T02:07:06.179Z,7.88
2022-08-26T02:09:41.323Z,6.97
2022-08-26T02:12:12.170Z,6.90
2022-08-26T02:14:44.500Z,6.53
2022-08-26T02:17:13.756Z,8.27
2022-08-26T02:19:46.793Z,8.77
2022-08-26T02:22:18.451Z,8.50
2022-08-26T02:24:50.515Z,9.07
2022-08-26T02:27:23.886Z,9.02
2022-08-26T02:29:55.176Z,10.07
2022-08-26T02:32:24.001Z,8.93
2022-08-26T02:34:53.044Z,8.35
2022-08-26T02:37:22.979Z,8.38
2022-08-26T02:39:53.137Z,8.85
2022-08-26T02:42:22.127Z,9.65
2022-08-26T02:44:51.431Z,8.50
2022-08-26T02:47:20.210Z,8.88
2022-08-26T02:49:53.634Z,7.45
2022-08-26T02:52:22.334Z,7.57
2022-08-26T02:54:52.633Z,8.35
2022-08-26T02:57:21.315Z,8.50
2022-08-26T02:59:50.989Z,8.65
2022-08-26T03:02:19.853Z,7.63
2022-08-26T03:04:57.328Z,7.35
2022-08-26T03:07:29.481Z,7.97
2022-08-26T03:10:00.981Z,7.85
2022-08-26T03:12:29.899Z,7.30
2022-08-26T03:14:58.524Z,8.35
2022-08-26T03:17:27.362Z,7.82
2022-08-26T03:19:57.355Z,7.88
2022-08-26T03:22:27.121Z,7.35
2022-08-26T03:24:56.142Z,7.85
2022-08-26T03:27:26.343Z,8.05
2022-08-26T03:30:14.239Z,7.82
2022-08-26T03:32:44.389Z,7.45
2022-08-26T03:35:13.786Z,7.07
2022-08-26T03:37:42.940Z,7.47
2022-08-26T03:40:13.076Z,8.27
2022-08-26T03:42:45.388Z,7.35
2022-08-26T03:45:16.219Z,7.60
2022-08-26T03:47:45.785Z,7.68
2022-08-26T03:50:17.861Z,7.07
2022-08-26T03:52:52.483Z,6.93
2022-08-26T03:55:23.666Z,7.50
2022-08-26T03:57:54.482Z,7.22
2022-08-26T04:00:24.425Z,7.60
2022-08-26T04:02:53.551Z,7.30
2022-08-26T04:05:23.851Z,7.15
2022-08-26T04:07:53.020Z,6.80
2022-08-26T04:10:29.126Z,7.05
2022-08-26T04:12:59.997Z,7.03
2022-08-26T04:15:29.221Z,6.97
2022-08-26T04:17:58.526Z,6.90
2022-08-26T04:20:27.520Z,6.57
2022-08-26T04:22:57.036Z,6.68
2022-08-26T04:25:25.984Z,7.25
2022-08-26T04:27:55.123Z,7.13
2022-08-26T04:30:25.344Z,7.18
2022-08-26T04:32:54.429Z,7.60
2022-08-26T04:35:25.935Z,7.97
2022-08-26T04:37:55.905Z,8.23
2022-08-26T04:40:27.767Z,7.65
2022-08-26T04:42:57.105Z,9.55
2022-08-26T04:45:27.948Z,10.52
2022-08-26T04:47:57.801Z,10.98
2022-08-26T04:50:27.341Z,10.57
2022-08-26T04:52:56.844Z,11.07
2022-08-26T04:55:38.133Z,10.77
2022-08-26T04:58:10.154Z,10.23
2022-08-26T05:00:40.871Z,12.23
2022-08-26T05:03:09.664Z,12.13
2022-08-26T05:05:41.627Z,10.53
2022-08-26T05:08:11.497Z,11.38
2022-08-26T05:10:44.403Z,11.60
2022-08-26T05:13:15.460Z,10.98
2022-08-26T05:15:47.153Z,11.23
2022-08-26T05:18:17.477Z,11.70
2022-08-26T05:20:51.664Z,12.82
2022-08-26T05:23:24.576Z,12.15
2022-08-26T05:25:59.382Z,13.15
2022-08-26T05:28:30.748Z,13.70
2022-08-26T05:31:01.018Z,14.40
2022-08-26T05:33:30.792Z,12.73
2022-08-26T05:35:59.341Z,12.88
2022-08-26T05:38:30.359Z,13.70
2022-08-26T05:40:59.428Z,14.60
2022-08-26T05:43:28.551Z,13.85
2022-08-26T05:45:57.752Z,12.82
2022-08-26T05:48:27.844Z,11.57
2022-08-26T05:53:26.194Z,11.43
2022-08-26T05:55:56.513Z,10.70
2022-08-26T05:58:28.400Z,10.40
2022-08-26T06:01:03.053Z,10.20
2022-08-26T06:03:36.104Z,10.07
2022-08-26T06:06:06.951Z,9.75
2022-08-26T06:08:36.438Z,10.50
2022-08-26T06:11:07.778Z,9.77
2022-08-26T06:13:47.957Z,10.35
2022-08-26T06:16:19.699Z,10.68
2022-08-26T06:18:51.617Z,10.52
2022-08-26T06:21:22.539Z,10.55
2022-08-26T06:24:12.099Z,11.13
2022-08-26T06:26:42.650Z,10.77
2022-08-26T06:29:11.661Z,11.02
2022-08-26T06:31:45.566Z,9.48
2022-08-26T06:34:16.108Z,10.07
2022-08-26T06:36:47.477Z,9.57
2022-08-26T06:39:18.607Z,8.90
2022-08-26T06:41:49.410Z,8.93
2022-08-26T06:44:20.976Z,8.88
2022-08-26T06:46:50.269Z,8.43
2022-08-26T06:49:26.827Z,8.45
2022-08-26T06:51:58.699Z,8.30
2022-08-26T06:54:28.585Z,8.23
2022-08-26T06:56:57.768Z,9.93
2022-08-26T06:59:27.561Z,8.43
2022-08-26T07:01:56.598Z,9.38
2022-08-26T07:04:28.126Z,9.13
2022-08-26T07:06:58.303Z,8.98
2022-08-26T07:09:29.493Z,8.57
2022-08-26T07:11:58.383Z,8.55
2022-08-26T07:14:27.856Z,8.32
2022-08-26T07:16:56.819Z,8.38
2022-08-26T07:19:30.354Z,8.27
2022-08-26T07:22:02.226Z,9.32
2022-08-26T07:24:32.563Z,8.88
2022-08-26T07:27:02.715Z,7.95
2022-08-26T07:29:32.555Z,8.95
2022-08-26T07:32:01.549Z,8.52
2022-08-26T07:34:33.104Z,8.35
2022-08-26T07:37:02.879Z,8.55
2022-08-26T07:39:32.865Z,8.60
2022-08-26T07:42:07.273Z,8.43
2022-08-26T07:44:37.092Z,9.25
2022-08-26T07:47:10.062Z,8.57
2022-08-26T07:49:56.342Z,8.95
2022-08-26T07:52:27.364Z,8.77
2022-08-26T07:54:58.376Z,8.43
2022-08-26T07:57:27.567Z,8.55
2022-08-26T07:59:56.983Z,8.57
2022-08-26T08:02:27.124Z,8.52
2022-08-26T08:04:58.294Z,8.40
2022-08-26T08:07:44.541Z,8.25
2022-08-26T08:10:18.690Z,8.50
2022-08-26T08:12:49.955Z,8.00
2022-08-26T08:15:20.429Z,7.18
2022-08-26T08:17:50.446Z,7.47
2022-08-26T08:20:23.477Z,7.60
2022-08-26T08:22:53.348Z,7.60
2022-08-26T08:25:23.467Z,8.65
2022-08-26T08:27:52.346Z,8.13
2022-08-26T08:30:23.455Z,7.18
2022-08-26T08:32:52.889Z,8.65
2022-08-26T08:35:24.417Z,7.85
2022-08-26T08:37:56.690Z,8.55
2022-08-26T08:40:28.078Z,7.88
2022-08-26T08:43:01.157Z,8.32
2022-08-26T08:45:37.246Z,8.18
2022-08-26T08:48:11.928Z,9.10
2022-08-26T08:50:46.989Z,8.98
2022-08-26T08:53:22.870Z,8.43
2022-08-26T08:56:09.390Z,8.75
2022-08-26T08:58:50.798Z,8.77
2022-08-26T09:01:35.668Z,9.73
2022-08-26T09:04:21.366Z,9.73
2022-08-26T09:06:55.527Z,8.88
2022-08-26T09:09:32.257Z,8.18
2022-08-26T09:12:03.212Z,9.50
2022-08-26T09:14:33.367Z,9.60
2022-08-26T09:17:10.154Z,10.30
2022-08-26T09:19:44.741Z,9.70
2022-08-26T09:22:29.686Z,10.07
2022-08-26T09:24:58.501Z,9.48
2022-08-26T09:27:43.027Z,8.38
2022-08-26T09:30:15.150Z,8.68
2022-08-26T09:32:44.708Z,8.68
2022-08-26T09:35:27.952Z,8.63
2022-08-26T09:37:59.650Z,6.75
2022-08-26T09:40:34.878Z,7.63
2022-08-26T09:43:16.080Z,7.22
2022-08-26T09:45:58.479Z,7.45
2022-08-26T09:48:31.945Z,7.32
2022-08-26T09:51:06.118Z,7.10
2022-08-26T09:53:51.619Z,6.85
2022-08-26T09:56:30.476Z,6.70
2022-08-26T09:59:00.497Z,7.75
2022-08-26T10:01:36.830Z,6.68
2022-08-26T10:04:09.989Z,6.53
2022-08-26T10:06:42.838Z,6.65
2022-08-26T10:09:19.484Z,6.85
2022-08-26T10:11:51.573Z,6.40
2022-08-26T10:14:25.821Z,6.50
2022-08-26T10:17:01.021Z,6.65
2022-08-26T10:19:56.074Z,6.72
2022-08-26T10:22:31.745Z,6.28
2022-08-26T10:25:05.275Z,6.28
2022-08-26T10:27:51.249Z,6.18
2022-08-26T10:30:25.343Z,5.78
2022-08-26T10:32:59.304Z,5.68
2022-08-26T10:35:29.145Z,6.40
2022-08-26T10:38:05.748Z,6.40
2022-08-26T10:40:49.065Z,6.68
2022-08-26T10:43:23.750Z,7.03
2022-08-26T10:45:58.502Z,5.55
2022-08-26T10:48:35.424Z,5.72
2022-08-26T10:51:06.287Z,5.65
2022-08-26T10:53:47.106Z,5.15
2022-08-26T10:56:31.571Z,5.22
2022-08-26T10:59:10.342Z,5.55
2022-08-26T11:01:51.098Z,5.55
2022-08-26T11:04:45.768Z,5.32
2022-08-26T11:07:41.111Z,5.93
2022-08-26T11:11:03.532Z,6.25
2022-08-26T11:14:05.068Z,5.80
2022-08-26T11:16:42.940Z,6.50
2022-08-26T11:19:14.538Z,5.47
2022-08-26T11:21:50.918Z,5.18
2022-08-26T11:25:11.584Z,5.57
2022-08-26T11:27:57.151Z,5.07
2022-08-26T11:30:43.070Z,5.43
2022-08-26T11:33:37.878Z,4.90
2022-08-26T11:36:12.296Z,5.40
2022-08-26T11:38:44.026Z,5.15
2022-08-26T11:41:20.168Z,5.55
2022-08-26T11:43:52.440Z,4.88
2022-08-26T11:46:28.907Z,5.00
2022-08-26T11:49:05.473Z,5.28
2022-08-26T11:51:40.043Z,5.35
2022-08-26T11:54:12.628Z,5.13
2022-08-26T11:56:43.445Z,5.00
2022-08-26T11:59:15.752Z,4.63
2022-08-26T12:01:50.510Z,4.70
2022-08-26T12:04:23.263Z,4.55
2022-08-26T12:06:53.787Z,5.15
2022-08-26T12:11:52.908Z,4.78
2022-08-26T12:14:27.954Z,5.05
2022-08-26T12:17:13.997Z,5.45
2022-08-26T12:19:43.010Z,4.97
2022-08-26T12:22:23.092Z,4.43
2022-08-26T12:24:54.886Z,4.65
2022-08-26T12:27:25.226Z,5.30
2022-08-26T12:30:09.835Z,4.78
2022-08-26T12:32:57.821Z,5.32
2022-08-26T12:35:29.387Z,4.65
2022-08-26T12:37:59.216Z,4.60
2022-08-26T12:40:39.668Z,4.43
2022-08-26T12:43:09.693Z,4.78
2022-08-26T12:45:41.975Z,4.60
2022-08-26T12:48:14.969Z,4.45
2022-08-26T12:50:50.270Z,5.15
2022-08-26T12:53:23.672Z,4.63
2022-08-26T12:55:55.710Z,4.60
2022-08-26T12:58:27.970Z,4.28
2022-08-26T13:00:59.416Z,4.80
2022-08-26T13:03:44.840Z,4.22
2022-08-26T13:06:30.165Z,5.22
2022-08-26T13:09:01.292Z,4.65
2022-08-26T13:11:32.151Z,4.43
2022-08-26T13:14:07.021Z,4.18
2022-08-26T13:16:36.943Z,4.38
2022-08-26T13:19:10.595Z,4.00
2022-08-26T13:21:45.229Z,4.50
2022-08-26T13:24:15.755Z,4.40
2022-08-26T13:26:46.598Z,4.25
2022-08-26T13:29:15.571Z,4.38
2022-08-26T13:31:46.009Z,4.57
2022-08-26T13:34:19.538Z,4.35
2022-08-26T13:36:48.812Z,4.18
2022-08-26T13:39:18.012Z,4.60
2022-08-26T13:41:46.929Z,3.92
2022-08-26T13:44:15.662Z,4.07
2022-08-26T13:49:20.033Z,3.92
2022-08-26T13:51:48.800Z,4.22
2022-08-26T13:54:17.433Z,3.78
2022-08-26T13:56:46.303Z,4.50
2022-08-26T13:59:15.118Z,3.90
2022-08-26T14:01:44.071Z,3.50
2022-08-26T14:04:12.764Z,4.10
2022-08-26T14:06:43.092Z,3.58
2022-08-26T14:09:11.844Z,3.70
2022-08-26T14:11:50.548Z,3.80
2022-08-26T14:14:24.156Z,3.95
2022-08-26T14:16:59.467Z,3.50
2022-08-26T14:19:30.296Z,3.45
2022-08-26T14:22:02.090Z,4.03
2022-08-26T14:24:31.275Z,3.90
2022-08-26T14:27:00.100Z,3.63
2022-08-26T14:29:29.083Z,4.75
2022-08-26T14:32:00.068Z,3.47
2022-08-26T14:34:28.818Z,3.65
2022-08-26T14:36:57.486Z,3.55
2022-08-26T14:39:38.415Z,3.78
2022-08-26T14:42:09.270Z,3.67
2022-08-26T14:44:38.433Z,3.20
2022-08-26T14:47:07.633Z,4.00
2022-08-26T14:49:36.713Z,3.35
2022-08-26T14:52:05.744Z,3.92
2022-08-26T14:54:33.416Z,4.07
2022-08-26T14:57:06.618Z,3.30
2022-08-26T14:59:36.790Z,3.90
2022-08-26T15:02:06.280Z,4.25
2022-08-26T15:04:35.218Z,3.17
2022-08-26T15:07:04.774Z,3.65
2022-08-26T15:09:36.629Z,4.17
2022-08-26T15:12:07.607Z,2.97
2022-08-26T15:14:36.271Z,3.83
2022-08-26T15:17:05.611Z,3.85
2022-08-26T15:19:34.307Z,3.90
2022-08-26T15:22:03.149Z,3.75
2022-08-26T15:24:32.262Z,3.58
2022-08-26T15:27:01.062Z,3.40
2022-08-26T15:29:31.588Z,3.70
2022-08-26T15:32:05.678Z,3.13
2022-08-26T15:34:34.356Z,4.18
2022-08-26T15:37:03.298Z,3.35
2022-08-26T15:39:32.180Z,3.95
2022-08-26T15:42:01.138Z,3.17
2022-08-26T15:44:31.414Z,3.10
2022-08-26T15:47:00.370Z,3.35
2022-08-26T15:49:29.116Z,3.15
2022-08-26T15:51:57.874Z,3.45
2022-08-26T15:54:26.757Z,3.55
2022-08-26T15:56:55.491Z,3.20
2022-08-26T15:59:24.605Z,2.92
2022-08-26T16:01:55.038Z,3.55
2022-08-26T16:04:23.824Z,3.25
2022-08-26T16:06:53.437Z,4.22
2022-08-26T16:09:27.194Z,3.83
2022-08-26T16:11:56.817Z,3.45
2022-08-26T16:14:26.055Z,3.53
2022-08-26T16:16:57.692Z,3.28
2022-08-26T16:19:26.545Z,3.53
2022-08-26T16:21:55.535Z,3.35
2022-08-26T16:24:29.702Z,4.30
2022-08-26T16:27:59.674Z,3.63
2022-08-26T16:30:29.151Z,3.97
2022-08-26T16:32:58.807Z,4.07
2022-08-26T16:41:13.678Z,4.63
2022-08-26T17:00:39.651Z,5.25
2022-08-26T17:03:08.670Z,5.95
2022-08-26T17:05:37.731Z,4.97
2022-08-26T17:08:07.202Z,5.10
2022-08-26T17:10:36.467Z,4.43
2022-08-26T17:13:05.312Z,4.18
2022-08-26T17:15:34.064Z,4.80
2022-08-26T17:18:04.327Z,4.03
2022-08-26T17:20:33.850Z,4.00
2022-08-26T17:23:02.599Z,4.53
2022-08-26T17:25:33.377Z,4.03
2022-08-26T17:28:02.250Z,4.10
2022-08-26T17:30:31.028Z,4.15
2022-08-26T17:33:00.124Z,4.30
2022-08-26T17:35:30.195Z,3.78
2022-08-26T17:37:59.994Z,4.20
2022-08-26T17:40:31.028Z,4.07
2022-08-26T17:43:00.315Z,5.53
2022-08-26T17:45:29.314Z,5.20
2022-08-26T17:47:58.042Z,5.57
2022-08-26T17:50:26.801Z,5.32
2022-08-26T17:52:57.124Z,4.57
2022-08-26T17:55:26.029Z,5.38
2022-08-26T17:57:54.689Z,6.13
2022-08-26T18:00:26.650Z,5.07
2022-08-26T18:02:55.555Z,5.55
2022-08-26T18:05:24.956Z,5.75
2022-08-26T18:07:53.693Z,6.45
2022-08-26T18:10:25.773Z,6.88
2022-08-26T18:12:54.753Z,6.55
2022-08-26T18:15:23.477Z,7.53
2022-08-26T18:17:52.212Z,7.50
2022-08-26T18:20:21.416Z,7.93
2022-08-26T18:22:50.218Z,8.15
2022-08-26T18:25:19.213Z,7.75
2022-08-26T18:27:49.855Z,7.60
2022-08-26T18:30:21.997Z,7.47
2022-08-26T18:32:51.093Z,8.77
2022-08-26T18:35:21.541Z,9.20
2022-08-26T18:37:50.233Z,9.23
2022-08-26T18:40:19.053Z,8.10
2022-08-26T18:42:49.296Z,7.00
2022-08-26T18:45:24.575Z,6.97
2022-08-26T18:47:53.382Z,6.97
2022-08-26T18:50:22.139Z,6.07
2022-08-26T18:52:50.915Z,6.88
2022-08-26T18:55:19.456Z,6.45
2022-08-26T18:57:48.073Z,6.78
2022-08-26T19:00:17.756Z,6.45
2022-08-26T19:02:51.733Z,7.63
2022-08-26T19:05:21.363Z,8.45
2022-08-26T19:07:49.926Z,7.53
2022-08-26T19:10:18.640Z,7.68
2022-08-26T19:12:47.079Z,6.82
2022-08-26T19:15:20.939Z,6.80
2022-08-26T19:17:50.942Z,8.00
2022-08-26T19:20:19.816Z,7.22
2022-08-26T19:22:48.313Z,7.60
2022-08-26T19:25:17.573Z,7.53
2022-08-26T19:27:46.173Z,6.72
2022-08-26T19:30:15.314Z,5.90
2022-08-26T19:32:43.895Z,5.53
2022-08-26T19:35:15.084Z,4.32
2022-08-26T19:37:43.714Z,2.67
2022-08-26T19:40:12.874Z,3.63
2022-08-26T19:42:41.575Z,2.90
2022-08-26T19:45:18.266Z,3.83
2022-08-26T19:47:54.382Z,4.78
2022-08-26T19:50:26.656Z,7.03
2022-08-26T19:52:55.434Z,6.35
2022-08-26T19:55:24.735Z,7.80
2022-08-26T19:57:54.003Z,6.60
2022-08-26T20:00:25.133Z,7.38
2022-08-26T20:02:54.218Z,7.65
2022-08-26T20:05:26.967Z,7.53
2022-08-26T20:07:56.799Z,8.75
2022-08-26T20:10:25.681Z,7.53
2022-08-26T20:12:54.357Z,7.15
2022-08-26T20:15:24.177Z,6.57
2022-08-26T20:17:52.908Z,6.63
2022-08-26T20:20:39.354Z,7.10
2022-08-26T20:23:09.924Z,8.18
2022-08-26T20:25:38.670Z,8.60
2022-08-26T20:28:07.321Z,8.40
2022-08-26T20:30:36.022Z,8.98
2022-08-26T20:33:04.683Z,10.10
2022-08-26T20:35:33.880Z,11.00
2022-08-26T20:38:02.584Z,12.80
2022-08-26T20:40:33.714Z,9.98
2022-08-26T20:43:02.468Z,10.10
2022-08-26T20:45:31.158Z,10.20
2022-08-26T20:47:59.942Z,9.95
2022-08-26T20:50:28.863Z,9.27
2022-08-26T20:52:57.583Z,10.60
2022-08-26T20:55:26.821Z,10.88
2022-08-26T20:57:57.140Z,9.00
2022-08-26T21:00:27.111Z,7.88
2022-08-26T21:02:57.842Z,8.50
2022-08-26T21:05:27.102Z,9.88
2022-08-26T21:07:56.260Z,8.98
2022-08-26T21:10:24.961Z,9.65
2022-08-26T21:12:54.640Z,10.50
2022-08-26T21:15:25.263Z,11.32
2022-08-26T21:17:54.082Z,12.98
2022-08-26T21:20:24.140Z,12.38
2022-08-26T21:22:53.283Z,13.02
2022-08-26T21:25:22.242Z,13.73
2022-08-26T21:27:50.920Z,11.30
2022-08-26T21:30:20.240Z,10.30
2022-08-26T21:32:50.721Z,10.82
2022-08-26T21:35:19.840Z,9.15
2022-08-26T21:37:48.672Z,11.85
2022-08-26T21:40:17.456Z,12.07
2022-08-26T21:42:46.240Z,12.02
2022-08-26T21:45:17.242Z,9.80
2022-08-26T21:47:47.002Z,10.30
2022-08-26T21:50:17.580Z,11.00
2022-08-26T21:52:46.482Z,11.18
2022-08-26T21:55:15.295Z,12.73
2022-08-26T21:57:44.102Z,13.25
2022-08-26T22:00:15.941Z,12.90
2022-08-26T22:02:44.927Z,12.55
2022-08-26T22:05:13.824Z,11.30
2022-08-26T22:07:44.280Z,12.85
2022-08-26T22:10:13.294Z,13.40
2022-08-26T22:12:42.083Z,10.43
2022-08-26T22:15:12.385Z,9.68
2022-08-26T22:17:41.443Z,10.30
2022-08-26T22:20:16.467Z,9.13
2022-08-26T22:22:47.156Z,7.55
2022-08-26T22:25:15.865Z,9.50
2022-08-26T22:27:44.682Z,12.27
2022-08-26T22:30:13.950Z,15.60
2022-08-26T22:32:44.141Z,15.25
2022-08-26T22:35:28.426Z,12.43
2022-08-26T22:38:00.863Z,13.13
2022-08-26T22:40:29.596Z,13.23
2022-08-26T22:43:00.049Z,11.45
2022-08-26T22:47:58.864Z,11.13
2022-08-26T22:50:28.064Z,12.13
2022-08-26T22:52:56.883Z,10.55
2022-08-26T22:55:27.051Z,11.48
2022-08-26T22:57:55.845Z,8.52
2022-08-26T23:00:32.198Z,8.60
2022-08-26T23:03:02.210Z,6.13
2022-08-26T23:05:31.303Z,7.30
2022-08-26T23:08:00.783Z,8.30
2022-08-26T23:10:31.006Z,6.78
2022-08-26T23:12:59.905Z,4.22
2022-08-26T23:15:28.742Z,5.32
2022-08-26T23:18:09.699Z,9.50
2022-08-26T23:20:39.406Z,13.00
2022-08-26T23:23:08.519Z,10.95
2022-08-26T23:25:38.866Z,8.38
2022-08-26T23:28:10.540Z,9.68
2022-08-26T23:30:39.401Z,8.80
2022-08-26T23:33:08.136Z,10.23
2022-08-26T23:35:35.823Z,13.30
2022-08-26T23:38:07.056Z,14.13
2022-08-26T23:40:40.803Z,13.65
2022-08-26T23:43:11.682Z,10.30
2022-08-26T23:45:40.593Z,8.30
2022-08-26T23:48:09.480Z,13.13
2022-08-26T23:50:55.703Z,13.10
2022-08-26T23:53:24.584Z,9.75
2022-08-26T23:55:54.987Z,9.32
2022-08-26T23:58:24.023Z,10.80
